sensor_id;sensor_type;location;lat;lon;timestamp;temperature;humidity
51811;DHT22;52468;40.116;18.296;2023-02-28T00:01:37;13.20;85.30
51811;DHT22;52468;40.116;18.296;2023-02-28T00:04:05;13.20;85.50
51811;DHT22;52468;40.116;18.296;2023-02-28T00:06:33;13.20;85.50
51811;DHT22;52468;40.116;18.296;2023-02-28T00:09:01;13.30;85.40
51811;DHT22;52468;40.116;18.296;2023-02-28T00:11:29;13.30;85.20
51811;DHT22;52468;40.116;18.296;2023-02-28T00:13:57;13.30;85.30
51811;DHT22;52468;40.116;18.296;2023-02-28T00:16:26;13.30;85.30
51811;DHT22;52468;40.116;18.296;2023-02-28T00:18:54;13.30;85.60
51811;DHT22;52468;40.116;18.296;2023-02-28T00:21:21;13.30;85.70
51811;DHT22;52468;40.116;18.296;2023-02-28T00:23:49;13.50;85.80
51811;DHT22;52468;40.116;18.296;2023-02-28T00:26:17;13.50;85.90
51811;DHT22;52468;40.116;18.296;2023-02-28T00:28:48;13.60;85.80
51811;DHT22;52468;40.116;18.296;2023-02-28T00:31:16;13.60;85.70
51811;DHT22;52468;40.116;18.296;2023-02-28T00:33:44;13.80;85.30
51811;DHT22;52468;40.116;18.296;2023-02-28T00:36:11;13.90;85.30
51811;DHT22;52468;40.116;18.296;2023-02-28T00:38:40;13.90;85.20
51811;DHT22;52468;40.116;18.296;2023-02-28T00:41:08;14.00;84.80
51811;DHT22;52468;40.116;18.296;2023-02-28T00:43:38;13.90;84.80
51811;DHT22;52468;40.116;18.296;2023-02-28T00:46:06;14.00;84.80
51811;DHT22;52468;40.116;18.296;2023-02-28T00:48:35;13.90;84.90
51811;DHT22;52468;40.116;18.296;2023-02-28T00:51:03;13.80;85.10
51811;DHT22;52468;40.116;18.296;2023-02-28T00:53:31;13.80;85.00
51811;DHT22;52468;40.116;18.296;2023-02-28T00:56:00;13.80;85.10
51811;DHT22;52468;40.116;18.296;2023-02-28T00:58:29;13.80;85.20
51811;DHT22;52468;40.116;18.296;2023-02-28T01:00:57;13.70;85.20
51811;DHT22;52468;40.116;18.296;2023-02-28T01:03:25;13.70;85.40
51811;DHT22;52468;40.116;18.296;2023-02-28T01:05:53;13.70;85.40
51811;DHT22;52468;40.116;18.296;2023-02-28T01:08:21;13.80;85.50
51811;DHT22;52468;40.116;18.296;2023-02-28T01:10:50;13.70;85.40
51811;DHT22;52468;40.116;18.296;2023-02-28T01:13:19;13.60;85.70
51811;DHT22;52468;40.116;18.296;2023-02-28T01:15:52;13.70;85.80
51811;DHT22;52468;40.116;18.296;2023-02-28T01:18:20;13.70;85.70
51811;DHT22;52468;40.116;18.296;2023-02-28T01:20:48;13.70;85.70
51811;DHT22;52468;40.116;18.296;2023-02-28T01:23:16;13.60;85.60
51811;DHT22;52468;40.116;18.296;2023-02-28T01:25:44;13.60;85.70
51811;DHT22;52468;40.116;18.296;2023-02-28T01:28:12;13.60;85.90
51811;DHT22;52468;40.116;18.296;2023-02-28T01:30:40;13.60;86.00
51811;DHT22;52468;40.116;18.296;2023-02-28T01:33:08;13.60;85.80
51811;DHT22;52468;40.116;18.296;2023-02-28T01:35:36;13.60;85.70
51811;DHT22;52468;40.116;18.296;2023-02-28T01:38:04;13.60;85.70
51811;DHT22;52468;40.116;18.296;2023-02-28T01:40:47;13.70;85.70
51811;DHT22;52468;40.116;18.296;2023-02-28T01:43:27;13.60;85.80
51811;DHT22;52468;40.116;18.296;2023-02-28T01:45:57;13.60;85.90
51811;DHT22;52468;40.116;18.296;2023-02-28T01:48:29;13.60;85.90
51811;DHT22;52468;40.116;18.296;2023-02-28T01:51:03;13.70;85.80
51811;DHT22;52468;40.116;18.296;2023-02-28T01:53:37;13.80;85.60
51811;DHT22;52468;40.116;18.296;2023-02-28T01:56:07;13.80;85.50
51811;DHT22;52468;40.116;18.296;2023-02-28T01:58:37;13.80;85.50
51811;DHT22;52468;40.116;18.296;2023-02-28T02:01:05;13.70;85.50
51811;DHT22;52468;40.116;18.296;2023-02-28T02:03:35;13.70;85.50
51811;DHT22;52468;40.116;18.296;2023-02-28T02:06:03;13.60;85.60
51811;DHT22;52468;40.116;18.296;2023-02-28T02:08:31;13.70;85.50
51811;DHT22;52468;40.116;18.296;2023-02-28T02:11:01;13.70;85.40
51811;DHT22;52468;40.116;18.296;2023-02-28T02:34:22;13.50;85.50
51811;DHT22;52468;40.116;18.296;2023-02-28T02:42:31;13.50;85.70
51811;DHT22;52468;40.116;18.296;2023-02-28T02:45:17;13.60;85.70
51811;DHT22;52468;40.116;18.296;2023-02-28T02:47:48;13.60;85.60
51811;DHT22;52468;40.116;18.296;2023-02-28T02:50:24;13.60;85.70
51811;DHT22;52468;40.116;18.296;2023-02-28T02:52:56;13.60;85.50
51811;DHT22;52468;40.116;18.296;2023-02-28T02:55:25;13.60;85.50
51811;DHT22;52468;40.116;18.296;2023-02-28T02:57:57;13.70;85.40
51811;DHT22;52468;40.116;18.296;2023-02-28T03:00:32;13.70;85.20
51811;DHT22;52468;40.116;18.296;2023-02-28T03:03:01;13.70;85.20
51811;DHT22;52468;40.116;18.296;2023-02-28T03:08:10;13.60;85.40
51811;DHT22;52468;40.116;18.296;2023-02-28T03:10:45;13.60;85.50
51811;DHT22;52468;40.116;18.296;2023-02-28T03:18:49;13.50;85.80
51811;DHT22;52468;40.116;18.296;2023-02-28T03:21:36;13.60;85.90
51811;DHT22;52468;40.116;18.296;2023-02-28T03:24:14;13.80;86.00
51811;DHT22;52468;40.116;18.296;2023-02-28T03:26:58;14.00;85.70
51811;DHT22;52468;40.116;18.296;2023-02-28T03:29:35;14.00;85.60
51811;DHT22;52468;40.116;18.296;2023-02-28T03:32:33;14.00;85.90
51811;DHT22;52468;40.116;18.296;2023-02-28T03:35:12;14.10;85.60
51811;DHT22;52468;40.116;18.296;2023-02-28T03:37:43;14.10;85.50
51811;DHT22;52468;40.116;18.296;2023-02-28T03:40:17;14.10;85.50
51811;DHT22;52468;40.116;18.296;2023-02-28T03:42:51;14.10;85.50
51811;DHT22;52468;40.116;18.296;2023-02-28T03:45:27;14.10;85.70
51811;DHT22;52468;40.116;18.296;2023-02-28T03:48:21;14.10;85.90
51811;DHT22;52468;40.116;18.296;2023-02-28T03:50:53;14.10;85.70
51811;DHT22;52468;40.116;18.296;2023-02-28T03:53:35;14.00;85.60
51811;DHT22;52468;40.116;18.296;2023-02-28T03:56:20;14.00;85.60
51811;DHT22;52468;40.116;18.296;2023-02-28T04:01:48;13.80;85.60
51811;DHT22;52468;40.116;18.296;2023-02-28T04:04:17;13.90;85.70
51811;DHT22;52468;40.116;18.296;2023-02-28T04:06:45;13.80;85.70
51811;DHT22;52468;40.116;18.296;2023-02-28T04:09:14;13.90;85.80
51811;DHT22;52468;40.116;18.296;2023-02-28T04:11:50;13.90;85.90
51811;DHT22;52468;40.116;18.296;2023-02-28T04:14:23;13.90;85.80
51811;DHT22;52468;40.116;18.296;2023-02-28T04:16:51;14.00;85.90
51811;DHT22;52468;40.116;18.296;2023-02-28T04:19:19;14.00;85.90
51811;DHT22;52468;40.116;18.296;2023-02-28T04:21:52;14.10;86.00
51811;DHT22;52468;40.116;18.296;2023-02-28T04:24:22;14.10;86.00
51811;DHT22;52468;40.116;18.296;2023-02-28T04:26:52;14.20;86.10
51811;DHT22;52468;40.116;18.296;2023-02-28T04:29:31;14.30;85.90
51811;DHT22;52468;40.116;18.296;2023-02-28T04:32:00;14.40;85.80
51811;DHT22;52468;40.116;18.296;2023-02-28T04:34:30;14.30;86.00
51811;DHT22;52468;40.116;18.296;2023-02-28T04:36:58;14.40;86.10
51811;DHT22;52468;40.116;18.296;2023-02-28T04:39:43;14.50;85.90
51811;DHT22;52468;40.116;18.296;2023-02-28T04:42:12;14.50;85.90
51811;DHT22;52468;40.116;18.296;2023-02-28T04:44:40;14.50;85.80
51811;DHT22;52468;40.116;18.296;2023-02-28T04:47:08;14.50;85.70
51811;DHT22;52468;40.116;18.296;2023-02-28T04:49:36;14.50;85.60
51811;DHT22;52468;40.116;18.296;2023-02-28T04:52:04;14.50;85.50
51811;DHT22;52468;40.116;18.296;2023-02-28T04:54:32;14.50;85.60
51811;DHT22;52468;40.116;18.296;2023-02-28T04:57:00;14.50;85.70
51811;DHT22;52468;40.116;18.296;2023-02-28T04:59:29;14.60;85.50
51811;DHT22;52468;40.116;18.296;2023-02-28T05:01:56;14.50;85.50
51811;DHT22;52468;40.116;18.296;2023-02-28T05:04:24;14.50;85.40
51811;DHT22;52468;40.116;18.296;2023-02-28T05:06:52;14.40;85.30
51811;DHT22;52468;40.116;18.296;2023-02-28T05:09:20;14.20;85.40
51811;DHT22;52468;40.116;18.296;2023-02-28T05:11:48;14.10;85.60
51811;DHT22;52468;40.116;18.296;2023-02-28T05:14:16;14.10;85.80
51811;DHT22;52468;40.116;18.296;2023-02-28T05:16:43;14.10;85.80
51811;DHT22;52468;40.116;18.296;2023-02-28T05:19:11;14.10;85.80
51811;DHT22;52468;40.116;18.296;2023-02-28T05:21:50;14.00;85.90
51811;DHT22;52468;40.116;18.296;2023-02-28T05:24:19;14.10;86.00
51811;DHT22;52468;40.116;18.296;2023-02-28T05:26:51;14.10;85.90
51811;DHT22;52468;40.116;18.296;2023-02-28T05:29:21;14.00;85.70
51811;DHT22;52468;40.116;18.296;2023-02-28T05:31:49;14.00;85.60
51811;DHT22;52468;40.116;18.296;2023-02-28T05:34:17;14.00;85.50
51811;DHT22;52468;40.116;18.296;2023-02-28T05:36:44;13.90;85.50
51811;DHT22;52468;40.116;18.296;2023-02-28T05:39:12;13.90;85.90
51811;DHT22;52468;40.116;18.296;2023-02-28T05:41:42;14.10;86.00
51811;DHT22;52468;40.116;18.296;2023-02-28T05:44:10;14.10;85.90
51811;DHT22;52468;40.116;18.296;2023-02-28T05:46:38;14.20;85.70
51811;DHT22;52468;40.116;18.296;2023-02-28T05:49:06;14.30;85.60
51811;DHT22;52468;40.116;18.296;2023-02-28T05:51:34;14.40;85.40
51811;DHT22;52468;40.116;18.296;2023-02-28T05:54:03;14.50;85.40
51811;DHT22;52468;40.116;18.296;2023-02-28T05:56:32;14.60;85.20
51811;DHT22;52468;40.116;18.296;2023-02-28T05:59:02;14.70;85.20
51811;DHT22;52468;40.116;18.296;2023-02-28T06:04:08;14.90;85.10
51811;DHT22;52468;40.116;18.296;2023-02-28T06:06:47;15.00;85.00
51811;DHT22;52468;40.116;18.296;2023-02-28T06:09:15;15.10;84.80
51811;DHT22;52468;40.116;18.296;2023-02-28T06:11:43;15.20;84.60
51811;DHT22;52468;40.116;18.296;2023-02-28T06:14:18;15.30;84.60
51811;DHT22;52468;40.116;18.296;2023-02-28T06:16:46;15.30;84.60
51811;DHT22;52468;40.116;18.296;2023-02-28T06:19:15;15.40;84.40
51811;DHT22;52468;40.116;18.296;2023-02-28T06:21:43;15.50;84.70
51811;DHT22;52468;40.116;18.296;2023-02-28T06:24:11;15.60;84.40
51811;DHT22;52468;40.116;18.296;2023-02-28T06:26:39;15.60;84.20
51811;DHT22;52468;40.116;18.296;2023-02-28T06:29:06;15.70;83.70
51811;DHT22;52468;40.116;18.296;2023-02-28T06:31:35;15.60;83.70
51811;DHT22;52468;40.116;18.296;2023-02-28T06:34:03;15.50;83.80
51811;DHT22;52468;40.116;18.296;2023-02-28T06:36:31;15.50;84.10
51811;DHT22;52468;40.116;18.296;2023-02-28T06:38:59;15.50;84.40
51811;DHT22;52468;40.116;18.296;2023-02-28T06:41:27;15.60;84.20
51811;DHT22;52468;40.116;18.296;2023-02-28T06:43:55;15.70;84.50
51811;DHT22;52468;40.116;18.296;2023-02-28T06:46:23;15.90;84.20
51811;DHT22;52468;40.116;18.296;2023-02-28T06:48:51;16.00;84.10
51811;DHT22;52468;40.116;18.296;2023-02-28T06:51:20;16.20;84.20
51811;DHT22;52468;40.116;18.296;2023-02-28T06:53:50;16.30;84.20
51811;DHT22;52468;40.116;18.296;2023-02-28T06:56:19;16.40;83.60
51811;DHT22;52468;40.116;18.296;2023-02-28T06:58:50;16.50;83.80
51811;DHT22;52468;40.116;18.296;2023-02-28T07:01:20;16.60;83.60
51811;DHT22;52468;40.116;18.296;2023-02-28T07:03:47;16.80;83.70
51811;DHT22;52468;40.116;18.296;2023-02-28T07:06:23;16.90;83.80
51811;DHT22;52468;40.116;18.296;2023-02-28T07:08:52;17.10;83.80
51811;DHT22;52468;40.116;18.296;2023-02-28T07:11:21;17.10;83.10
51811;DHT22;52468;40.116;18.296;2023-02-28T07:13:50;17.30;83.10
51811;DHT22;52468;40.116;18.296;2023-02-28T07:16:18;17.30;83.00
51811;DHT22;52468;40.116;18.296;2023-02-28T07:18:46;17.50;83.20
51811;DHT22;52468;40.116;18.296;2023-02-28T07:21:14;17.60;83.20
51811;DHT22;52468;40.116;18.296;2023-02-28T07:23:42;17.60;82.60
51811;DHT22;52468;40.116;18.296;2023-02-28T07:26:13;17.60;82.20
51811;DHT22;52468;40.116;18.296;2023-02-28T07:28:42;17.70;82.80
51811;DHT22;52468;40.116;18.296;2023-02-28T07:31:11;17.80;82.70
51811;DHT22;52468;40.116;18.296;2023-02-28T07:33:40;17.80;81.50
51811;DHT22;52468;40.116;18.296;2023-02-28T07:36:13;17.80;83.20
51811;DHT22;52468;40.116;18.296;2023-02-28T07:38:44;18.00;82.00
51811;DHT22;52468;40.116;18.296;2023-02-28T07:41:19;18.10;82.80
51811;DHT22;52468;40.116;18.296;2023-02-28T07:43:47;18.30;82.30
51811;DHT22;52468;40.116;18.296;2023-02-28T07:46:16;18.30;82.30
51811;DHT22;52468;40.116;18.296;2023-02-28T07:48:44;18.50;82.10
51811;DHT22;52468;40.116;18.296;2023-02-28T07:51:12;18.60;82.60
51811;DHT22;52468;40.116;18.296;2023-02-28T07:53:40;18.90;82.20
51811;DHT22;52468;40.116;18.296;2023-02-28T07:56:08;19.20;81.50
51811;DHT22;52468;40.116;18.296;2023-02-28T07:58:36;19.30;79.40
51811;DHT22;52468;40.116;18.296;2023-02-28T08:01:08;19.40;78.30
51811;DHT22;52468;40.116;18.296;2023-02-28T08:03:38;19.50;79.90
51811;DHT22;52468;40.116;18.296;2023-02-28T08:06:08;19.30;79.00
51811;DHT22;52468;40.116;18.296;2023-02-28T08:08:35;19.20;78.90
51811;DHT22;52468;40.116;18.296;2023-02-28T08:11:04;19.10;80.50
51811;DHT22;52468;40.116;18.296;2023-02-28T08:13:32;19.20;81.50
51811;DHT22;52468;40.116;18.296;2023-02-28T08:16:01;19.50;82.90
51811;DHT22;52468;40.116;18.296;2023-02-28T08:18:31;20.00;82.10
51811;DHT22;52468;40.116;18.296;2023-02-28T08:21:05;20.20;80.10
51811;DHT22;52468;40.116;18.296;2023-02-28T08:23:33;20.50;79.20
51811;DHT22;52468;40.116;18.296;2023-02-28T08:26:01;20.40;77.40
51811;DHT22;52468;40.116;18.296;2023-02-28T08:28:29;20.50;78.50
51811;DHT22;52468;40.116;18.296;2023-02-28T08:30:58;20.50;78.50
51811;DHT22;52468;40.116;18.296;2023-02-28T08:33:27;20.50;77.00
51811;DHT22;52468;40.116;18.296;2023-02-28T08:35:56;20.60;77.60
51811;DHT22;52468;40.116;18.296;2023-02-28T08:38:24;20.70;76.90
51811;DHT22;52468;40.116;18.296;2023-02-28T08:40:58;20.80;75.60
51811;DHT22;52468;40.116;18.296;2023-02-28T08:43:26;21.00;73.30
51811;DHT22;52468;40.116;18.296;2023-02-28T08:45:55;21.00;69.40
51811;DHT22;52468;40.116;18.296;2023-02-28T08:48:26;21.00;69.90
51811;DHT22;52468;40.116;18.296;2023-02-28T08:51:02;21.00;67.00
51811;DHT22;52468;40.116;18.296;2023-02-28T08:53:37;21.10;66.30
51811;DHT22;52468;40.116;18.296;2023-02-28T08:56:08;21.00;65.30
51811;DHT22;52468;40.116;18.296;2023-02-28T08:58:36;20.80;63.80
51811;DHT22;52468;40.116;18.296;2023-02-28T09:01:10;20.60;65.00
51811;DHT22;52468;40.116;18.296;2023-02-28T09:03:38;20.60;64.80
51811;DHT22;52468;40.116;18.296;2023-02-28T09:06:07;20.70;63.50
51811;DHT22;52468;40.116;18.296;2023-02-28T09:08:35;20.80;64.20
51811;DHT22;52468;40.116;18.296;2023-02-28T09:11:03;20.90;62.90
51811;DHT22;52468;40.116;18.296;2023-02-28T09:13:31;20.90;61.20
51811;DHT22;52468;40.116;18.296;2023-02-28T09:16:04;20.80;60.60
51811;DHT22;52468;40.116;18.296;2023-02-28T09:18:35;20.90;61.20
51811;DHT22;52468;40.116;18.296;2023-02-28T09:21:06;20.90;61.00
51811;DHT22;52468;40.116;18.296;2023-02-28T09:23:35;20.90;60.90
51811;DHT22;52468;40.116;18.296;2023-02-28T09:26:06;20.80;60.10
51811;DHT22;52468;40.116;18.296;2023-02-28T09:28:34;20.90;60.20
51811;DHT22;52468;40.116;18.296;2023-02-28T09:31:01;20.90;59.90
51811;DHT22;52468;40.116;18.296;2023-02-28T09:33:32;20.80;58.60
51811;DHT22;52468;40.116;18.296;2023-02-28T09:36:03;21.10;59.50
51811;DHT22;52468;40.116;18.296;2023-02-28T09:38:34;21.90;57.20
51811;DHT22;52468;40.116;18.296;2023-02-28T09:41:10;21.90;57.30
51811;DHT22;52468;40.116;18.296;2023-02-28T09:43:42;22.20;57.50
51811;DHT22;52468;40.116;18.296;2023-02-28T09:46:28;22.50;55.60
51811;DHT22;52468;40.116;18.296;2023-02-28T09:49:00;22.80;54.70
51811;DHT22;52468;40.116;18.296;2023-02-28T09:54:18;22.90;52.70
51811;DHT22;52468;40.116;18.296;2023-02-28T10:05:31;21.90;49.60
51811;DHT22;52468;40.116;18.296;2023-02-28T10:10:57;21.60;49.30
51811;DHT22;52468;40.116;18.296;2023-02-28T10:13:39;21.60;48.70
51811;DHT22;52468;40.116;18.296;2023-02-28T10:16:13;21.60;48.10
51811;DHT22;52468;40.116;18.296;2023-02-28T10:18:52;21.80;48.10
51811;DHT22;52468;40.116;18.296;2023-02-28T10:21:35;22.00;47.90
51811;DHT22;52468;40.116;18.296;2023-02-28T10:24:28;22.20;47.70
51811;DHT22;52468;40.116;18.296;2023-02-28T10:29:46;22.70;47.20
51811;DHT22;52468;40.116;18.296;2023-02-28T10:32:20;22.90;46.40
51811;DHT22;52468;40.116;18.296;2023-02-28T10:34:57;23.10;46.30
51811;DHT22;52468;40.116;18.296;2023-02-28T10:37:27;23.10;45.20
51811;DHT22;52468;40.116;18.296;2023-02-28T10:39:55;23.10;45.30
51811;DHT22;52468;40.116;18.296;2023-02-28T10:42:27;23.00;45.50
51811;DHT22;52468;40.116;18.296;2023-02-28T10:47:35;23.00;45.40
51811;DHT22;52468;40.116;18.296;2023-02-28T10:50:04;23.00;45.20
51811;DHT22;52468;40.116;18.296;2023-02-28T10:52:35;23.00;45.30
51811;DHT22;52468;40.116;18.296;2023-02-28T10:55:22;22.90;44.70
51811;DHT22;52468;40.116;18.296;2023-02-28T10:57:50;22.70;44.60
51811;DHT22;52468;40.116;18.296;2023-02-28T11:00:23;22.60;44.70
51811;DHT22;52468;40.116;18.296;2023-02-28T11:02:52;22.80;44.90
51811;DHT22;52468;40.116;18.296;2023-02-28T11:05:31;23.10;44.80
51811;DHT22;52468;40.116;18.296;2023-02-28T11:08:12;23.50;44.20
51811;DHT22;52468;40.116;18.296;2023-02-28T11:10:46;23.80;43.70
51811;DHT22;52468;40.116;18.296;2023-02-28T11:13:20;23.80;43.60
51811;DHT22;52468;40.116;18.296;2023-02-28T11:15:58;23.90;43.80
51811;DHT22;52468;40.116;18.296;2023-02-28T11:18:30;23.80;44.00
51811;DHT22;52468;40.116;18.296;2023-02-28T11:21:01;24.00;43.40
51811;DHT22;52468;40.116;18.296;2023-02-28T11:23:32;23.70;44.10
51811;DHT22;52468;40.116;18.296;2023-02-28T11:26:04;23.60;43.70
51811;DHT22;52468;40.116;18.296;2023-02-28T11:28:34;23.30;44.30
51811;DHT22;52468;40.116;18.296;2023-02-28T11:31:20;23.10;44.60
51811;DHT22;52468;40.116;18.296;2023-02-28T11:33:54;22.80;45.40
51811;DHT22;52468;40.116;18.296;2023-02-28T11:36:24;22.80;45.90
51811;DHT22;52468;40.116;18.296;2023-02-28T11:39:01;23.10;45.50
51811;DHT22;52468;40.116;18.296;2023-02-28T11:42:02;23.40;44.70
51811;DHT22;52468;40.116;18.296;2023-02-28T11:47:38;23.40;43.90
51811;DHT22;52468;40.116;18.296;2023-02-28T11:55:47;24.10;43.00
51811;DHT22;52468;40.116;18.296;2023-02-28T12:04:11;23.50;42.40
51811;DHT22;52468;40.116;18.296;2023-02-28T12:07:09;23.40;42.90
51811;DHT22;52468;40.116;18.296;2023-02-28T12:10:01;23.50;43.00
51811;DHT22;52468;40.116;18.296;2023-02-28T12:15:51;23.90;41.20
51811;DHT22;52468;40.116;18.296;2023-02-28T12:26:41;24.10;38.40
51811;DHT22;52468;40.116;18.296;2023-02-28T12:32:09;23.80;37.90
51811;DHT22;52468;40.116;18.296;2023-02-28T12:34:49;23.80;37.70
51811;DHT22;52468;40.116;18.296;2023-02-28T12:37:28;23.80;36.80
51811;DHT22;52468;40.116;18.296;2023-02-28T12:40:03;24.10;36.30
51811;DHT22;52468;40.116;18.296;2023-02-28T12:42:39;24.20;35.90
51811;DHT22;52468;40.116;18.296;2023-02-28T12:45:27;24.20;36.40
51811;DHT22;52468;40.116;18.296;2023-02-28T12:48:05;24.50;36.20
51811;DHT22;52468;40.116;18.296;2023-02-28T12:50:34;24.70;36.20
51811;DHT22;52468;40.116;18.296;2023-02-28T12:53:11;24.80;35.80
51811;DHT22;52468;40.116;18.296;2023-02-28T12:58:43;24.80;33.40
51811;DHT22;52468;40.116;18.296;2023-02-28T13:09:33;24.10;34.70
51811;DHT22;52468;40.116;18.296;2023-02-28T13:12:01;24.20;34.80
51811;DHT22;52468;40.116;18.296;2023-02-28T13:17:14;24.20;34.20
51811;DHT22;52468;40.116;18.296;2023-02-28T13:19:57;24.10;33.70
51811;DHT22;52468;40.116;18.296;2023-02-28T13:25:00;24.30;33.50
51811;DHT22;52468;40.116;18.296;2023-02-28T13:27:39;24.10;33.90
51811;DHT22;52468;40.116;18.296;2023-02-28T13:35:47;23.20;34.80
51811;DHT22;52468;40.116;18.296;2023-02-28T13:38:32;23.30;34.80
51811;DHT22;52468;40.116;18.296;2023-02-28T13:54:56;24.10;31.60
51811;DHT22;52468;40.116;18.296;2023-02-28T14:05:21;24.30;32.60
51811;DHT22;52468;40.116;18.296;2023-02-28T14:07:58;24.10;35.40
51811;DHT22;52468;40.116;18.296;2023-02-28T14:10:45;23.80;37.60
51811;DHT22;52468;40.116;18.296;2023-02-28T14:13:37;23.50;38.30
51811;DHT22;52468;40.116;18.296;2023-02-28T14:16:08;23.40;39.00
51811;DHT22;52468;40.116;18.296;2023-02-28T14:18:38;23.30;39.20
51811;DHT22;52468;40.116;18.296;2023-02-28T14:21:19;23.20;41.20
51811;DHT22;52468;40.116;18.296;2023-02-28T14:29:36;22.70;46.00
51811;DHT22;52468;40.116;18.296;2023-02-28T14:32:28;22.60;47.20
51811;DHT22;52468;40.116;18.296;2023-02-28T14:37:33;22.30;47.70
51811;DHT22;52468;40.116;18.296;2023-02-28T14:40:11;22.10;47.10
51811;DHT22;52468;40.116;18.296;2023-02-28T14:43:00;22.00;46.70
51811;DHT22;52468;40.116;18.296;2023-02-28T14:45:33;21.80;48.10
51811;DHT22;52468;40.116;18.296;2023-02-28T14:48:04;21.90;48.40
51811;DHT22;52468;40.116;18.296;2023-02-28T14:50:37;22.00;48.50
51811;DHT22;52468;40.116;18.296;2023-02-28T14:53:09;22.10;49.10
51811;DHT22;52468;40.116;18.296;2023-02-28T14:55:47;22.10;49.00
51811;DHT22;52468;40.116;18.296;2023-02-28T14:58:51;22.10;49.30
51811;DHT22;52468;40.116;18.296;2023-02-28T15:01:21;22.20;48.40
51811;DHT22;52468;40.116;18.296;2023-02-28T15:04:04;22.60;47.90
51811;DHT22;52468;40.116;18.296;2023-02-28T15:06:33;23.40;45.20
51811;DHT22;52468;40.116;18.296;2023-02-28T15:09:14;23.80;43.90
51811;DHT22;52468;40.116;18.296;2023-02-28T15:11:47;23.70;43.20
51811;DHT22;52468;40.116;18.296;2023-02-28T15:14:20;23.50;43.60
51811;DHT22;52468;40.116;18.296;2023-02-28T15:16:56;23.10;44.20
51811;DHT22;52468;40.116;18.296;2023-02-28T15:19:27;22.80;45.20
51811;DHT22;52468;40.116;18.296;2023-02-28T15:22:01;22.20;46.10
51811;DHT22;52468;40.116;18.296;2023-02-28T15:24:39;21.30;48.40
51811;DHT22;52468;40.116;18.296;2023-02-28T15:27:29;20.50;50.80
51811;DHT22;52468;40.116;18.296;2023-02-28T15:30:08;20.10;51.70
51811;DHT22;52468;40.116;18.296;2023-02-28T15:32:38;20.00;52.40
51811;DHT22;52468;40.116;18.296;2023-02-28T15:35:28;19.60;53.20
51811;DHT22;52468;40.116;18.296;2023-02-28T15:38:00;19.40;54.10
51811;DHT22;52468;40.116;18.296;2023-02-28T15:40:30;19.00;55.60
51811;DHT22;52468;40.116;18.296;2023-02-28T15:43:25;18.60;56.70
51811;DHT22;52468;40.116;18.296;2023-02-28T15:48:50;18.00;59.30
51811;DHT22;52468;40.116;18.296;2023-02-28T15:51:22;17.80;60.10
51811;DHT22;52468;40.116;18.296;2023-02-28T15:53:56;17.60;60.80
51811;DHT22;52468;40.116;18.296;2023-02-28T15:56:32;17.50;60.80
51811;DHT22;52468;40.116;18.296;2023-02-28T15:59:04;17.40;61.20
51811;DHT22;52468;40.116;18.296;2023-02-28T16:01:35;17.30;61.70
51811;DHT22;52468;40.116;18.296;2023-02-28T16:04:06;17.20;62.30
51811;DHT22;52468;40.116;18.296;2023-02-28T16:06:43;17.20;62.50
51811;DHT22;52468;40.116;18.296;2023-02-28T16:09:14;17.10;62.80
51811;DHT22;52468;40.116;18.296;2023-02-28T16:11:45;17.10;62.90
51811;DHT22;52468;40.116;18.296;2023-02-28T16:14:19;17.10;63.10
51811;DHT22;52468;40.116;18.296;2023-02-28T16:16:50;17.00;63.60
51811;DHT22;52468;40.116;18.296;2023-02-28T16:19:19;17.00;63.70
51811;DHT22;52468;40.116;18.296;2023-02-28T16:21:48;16.70;64.40
51811;DHT22;52468;40.116;18.296;2023-02-28T16:24:16;16.50;65.00
51811;DHT22;52468;40.116;18.296;2023-02-28T16:26:46;16.50;65.20
51811;DHT22;52468;40.116;18.296;2023-02-28T16:29:40;16.50;65.20
51811;DHT22;52468;40.116;18.296;2023-02-28T16:32:07;16.40;65.70
51811;DHT22;52468;40.116;18.296;2023-02-28T16:34:35;16.30;66.40
51811;DHT22;52468;40.116;18.296;2023-02-28T16:37:05;16.20;66.90
51811;DHT22;52468;40.116;18.296;2023-02-28T16:39:37;16.10;66.90
51811;DHT22;52468;40.116;18.296;2023-02-28T16:42:05;16.10;67.20
51811;DHT22;52468;40.116;18.296;2023-02-28T16:44:35;16.00;67.40
51811;DHT22;52468;40.116;18.296;2023-02-28T16:47:04;16.00;67.40
51811;DHT22;52468;40.116;18.296;2023-02-28T16:49:32;15.90;67.70
51811;DHT22;52468;40.116;18.296;2023-02-28T16:52:00;15.80;67.80
51811;DHT22;52468;40.116;18.296;2023-02-28T16:54:27;15.80;68.20
51811;DHT22;52468;40.116;18.296;2023-02-28T16:56:55;15.80;68.40
51811;DHT22;52468;40.116;18.296;2023-02-28T16:59:24;15.70;68.90
51811;DHT22;52468;40.116;18.296;2023-02-28T17:01:55;15.70;68.70
51811;DHT22;52468;40.116;18.296;2023-02-28T17:04:26;15.60;69.30
51811;DHT22;52468;40.116;18.296;2023-02-28T17:06:54;15.60;69.70
51811;DHT22;52468;40.116;18.296;2023-02-28T17:09:23;15.50;70.50
51811;DHT22;52468;40.116;18.296;2023-02-28T17:12:03;15.50;70.90
51811;DHT22;52468;40.116;18.296;2023-02-28T17:14:31;15.50;71.70
51811;DHT22;52468;40.116;18.296;2023-02-28T17:16:59;15.40;71.80
51811;DHT22;52468;40.116;18.296;2023-02-28T17:19:27;15.30;72.50
51811;DHT22;52468;40.116;18.296;2023-02-28T17:21:55;15.30;73.20
51811;DHT22;52468;40.116;18.296;2023-02-28T17:24:23;15.10;74.00
51811;DHT22;52468;40.116;18.296;2023-02-28T17:26:57;15.10;74.20
51811;DHT22;52468;40.116;18.296;2023-02-28T17:29:25;15.10;75.20
51811;DHT22;52468;40.116;18.296;2023-02-28T17:31:53;15.00;75.60
51811;DHT22;52468;40.116;18.296;2023-02-28T17:34:21;15.00;75.60
51811;DHT22;52468;40.116;18.296;2023-02-28T17:36:50;14.90;76.10
51811;DHT22;52468;40.116;18.296;2023-02-28T17:39:20;14.90;76.10
51811;DHT22;52468;40.116;18.296;2023-02-28T17:41:52;14.90;76.80
51811;DHT22;52468;40.116;18.296;2023-02-28T17:44:21;14.80;77.00
51811;DHT22;52468;40.116;18.296;2023-02-28T17:46:52;14.80;77.40
51811;DHT22;52468;40.116;18.296;2023-02-28T17:49:21;14.70;77.40
51811;DHT22;52468;40.116;18.296;2023-02-28T17:51:49;14.70;77.80
51811;DHT22;52468;40.116;18.296;2023-02-28T17:54:18;14.60;77.60
51811;DHT22;52468;40.116;18.296;2023-02-28T17:56:45;14.60;77.90
51811;DHT22;52468;40.116;18.296;2023-02-28T17:59:13;14.60;77.80
51811;DHT22;52468;40.116;18.296;2023-02-28T18:01:42;14.60;77.80
51811;DHT22;52468;40.116;18.296;2023-02-28T18:04:09;14.50;77.80
51811;DHT22;52468;40.116;18.296;2023-02-28T18:06:40;14.50;78.10
51811;DHT22;52468;40.116;18.296;2023-02-28T18:09:17;14.50;78.00